createdAt,value
2023-02-24T00:00:31.187Z,11.16
2023-02-24T00:03:38.795Z,11.21
2023-02-24T00:06:45.698Z,11.22
2023-02-24T00:09:52.172Z,11.20
2023-02-24T00:12:58.411Z,11.18
2023-02-24T00:16:06.369Z,11.17
2023-02-24T00:19:14.987Z,11.17
2023-02-24T00:22:21.270Z,11.15
2023-02-24T00:25:25.774Z,11.16
2023-02-24T00:28:32.682Z,11.10
2023-02-24T00:31:42.271Z,11.09
2023-02-24T00:34:49.403Z,11.08
2023-02-24T00:37:55.719Z,11.01
2023-02-24T00:41:00.680Z,10.95
2023-02-24T00:44:09.874Z,10.84
2023-02-24T00:47:17.473Z,10.81
2023-02-24T00:50:24.979Z,10.81
2023-02-24T00:53:31.889Z,10.79
2023-02-24T00:56:38.259Z,10.79
2023-02-24T00:59:47.811Z,10.79
2023-02-24T01:02:54.108Z,10.78
2023-02-24T01:06:04.312Z,10.85
2023-02-24T01:09:13.406Z,10.91
2023-02-24T01:12:33.492Z,10.96
2023-02-24T01:15:39.821Z,11.00
2023-02-24T01:18:44.340Z,11.05
2023-02-24T01:21:55.211Z,11.07
2023-02-24T01:25:01.392Z,11.14
2023-02-24T01:28:11.255Z,11.20
2023-02-24T01:31:21.099Z,11.26
2023-02-24T01:34:28.499Z,11.32
2023-02-24T01:37:34.804Z,11.38
2023-02-24T01:40:39.492Z,11.44
2023-02-24T01:44:03.583Z,11.42
2023-02-24T01:47:10.345Z,11.44
2023-02-24T01:50:17.909Z,11.44
2023-02-24T01:53:24.245Z,11.43
2023-02-24T01:56:30.017Z,11.42
2023-02-24T01:59:36.722Z,11.38
2023-02-24T02:02:47.905Z,11.39
2023-02-24T02:05:59.099Z,11.38
2023-02-24T02:09:08.085Z,11.41
2023-02-24T02:12:15.358Z,11.41
2023-02-24T02:15:22.011Z,11.44
2023-02-24T02:18:35.464Z,11.46
2023-02-24T02:22:03.937Z,11.45
2023-02-24T02:25:19.697Z,11.48
2023-02-24T02:29:04.143Z,11.52
2023-02-24T02:32:39.208Z,11.55
2023-02-24T02:35:51.967Z,11.59
2023-02-24T02:39:06.141Z,11.63
2023-02-24T02:42:24.425Z,11.67
2023-02-24T02:45:39.718Z,11.66
2023-02-24T02:48:54.014Z,11.64
2023-02-24T02:52:10.596Z,11.66
2023-02-24T02:55:24.096Z,11.63
2023-02-24T02:58:35.430Z,11.63
2023-02-24T03:01:46.545Z,11.63
2023-02-24T03:04:57.416Z,11.61
2023-02-24T03:08:11.565Z,11.59
2023-02-24T03:11:21.577Z,11.58
2023-02-24T03:14:30.920Z,11.57
2023-02-24T03:17:42.101Z,11.56
2023-02-24T03:20:52.485Z,11.56
2023-02-24T03:23:59.005Z,11.56
2023-02-24T03:27:13.198Z,11.57
2023-02-24T03:30:23.324Z,11.58
2023-02-24T03:33:34.086Z,11.60
2023-02-24T03:36:40.592Z,11.63
2023-02-24T03:39:51.051Z,11.65
2023-02-24T03:43:05.833Z,11.66
2023-02-24T03:46:12.400Z,11.67
2023-02-24T03:49:18.784Z,11.69
2023-02-24T03:52:29.249Z,11.69
2023-02-24T03:55:47.560Z,11.69
2023-02-24T03:59:07.954Z,11.72
2023-02-24T04:02:22.108Z,11.75
2023-02-24T04:05:32.885Z,11.76
2023-02-24T04:08:47.398Z,11.75
2023-02-24T04:12:05.852Z,11.69
2023-02-24T04:15:16.839Z,11.64
2023-02-24T04:18:27.776Z,11.60
2023-02-24T04:21:35.340Z,11.54
2023-02-24T04:24:44.492Z,11.47
2023-02-24T04:27:52.789Z,11.41
2023-02-24T04:31:06.325Z,11.35
2023-02-24T04:34:12.618Z,11.29
2023-02-24T04:37:23.241Z,11.25
2023-02-24T04:40:29.622Z,11.24
2023-02-24T04:43:36.186Z,11.24
2023-02-24T04:46:42.521Z,11.22
2023-02-24T04:49:47.141Z,11.22
2023-02-24T04:52:55.700Z,11.18
2023-02-24T04:56:09.318Z,11.19
2023-02-24T04:59:15.891Z,11.19
2023-02-24T05:02:22.163Z,11.22
2023-02-24T05:05:28.884Z,11.20
2023-02-24T05:08:36.267Z,11.18
2023-02-24T05:11:42.965Z,11.15
2023-02-24T05:14:50.025Z,11.11
2023-02-24T05:17:57.420Z,11.10
2023-02-24T05:21:26.949Z,11.13
2023-02-24T05:24:34.741Z,11.13
2023-02-24T05:27:41.122Z,11.13
2023-02-24T05:30:45.690Z,11.13
2023-02-24T05:33:55.697Z,11.10
2023-02-24T05:37:04.588Z,11.11
2023-02-24T05:40:14.879Z,11.10
2023-02-24T05:43:21.153Z,11.11
2023-02-24T05:46:28.612Z,11.15
2023-02-24T05:49:38.926Z,11.17
2023-02-24T05:52:45.859Z,11.23
2023-02-24T05:55:52.105Z,11.25
2023-02-24T05:59:03.129Z,11.24
2023-02-24T06:02:12.513Z,11.23
2023-02-24T06:05:26.827Z,11.24
2023-02-24T06:08:42.409Z,11.26
2023-02-24T06:11:48.814Z,11.28
2023-02-24T06:14:53.676Z,11.29
2023-02-24T06:18:01.115Z,11.28
2023-02-24T06:21:08.504Z,11.33
2023-02-24T06:24:18.068Z,11.37
2023-02-24T06:27:25.368Z,11.40
2023-02-24T06:30:32.861Z,11.44
2023-02-24T06:33:39.213Z,11.46
2023-02-24T06:36:43.909Z,11.49
2023-02-24T06:39:50.115Z,11.48
2023-02-24T06:42:57.291Z,11.53
2023-02-24T06:46:06.305Z,11.57
2023-02-24T06:49:12.777Z,11.59
2023-02-24T06:52:19.810Z,11.63
2023-02-24T06:55:29.027Z,11.65
2023-02-24T06:58:35.372Z,11.67
2023-02-24T07:01:45.469Z,11.68
2023-02-24T07:04:55.482Z,11.65
2023-02-24T07:08:02.045Z,11.68
2023-02-24T07:11:08.326Z,11.65
2023-02-24T07:14:13.487Z,11.61
2023-02-24T07:17:21.030Z,11.55
2023-02-24T07:20:27.339Z,11.56
2023-02-24T07:23:32.404Z,11.57
2023-02-24T07:26:41.810Z,11.54
2023-02-24T07:29:51.786Z,11.59
2023-02-24T07:32:58.990Z,11.60
2023-02-24T07:36:08.688Z,11.61
2023-02-24T07:39:15.062Z,11.58
2023-02-24T07:42:19.593Z,11.62
2023-02-24T07:45:26.178Z,11.62
2023-02-24T07:48:32.719Z,11.64
2023-02-24T07:51:39.201Z,11.66
2023-02-24T07:54:45.489Z,11.66
2023-02-24T07:57:51.901Z,11.67
2023-02-24T08:01:08.766Z,11.69
2023-02-24T08:04:16.028Z,11.72
2023-02-24T08:07:25.709Z,11.72
2023-02-24T08:10:37.011Z,11.74
2023-02-24T08:13:45.044Z,11.76
2023-02-24T08:16:52.891Z,11.78
2023-02-24T08:20:22.110Z,11.81
2023-02-24T08:23:28.367Z,11.84
2023-02-24T08:26:32.943Z,11.88
2023-02-24T08:29:58.031Z,11.89
2023-02-24T08:33:04.304Z,11.96
2023-02-24T08:36:12.215Z,12.02
2023-02-24T08:39:19.368Z,12.08
2023-02-24T08:42:34.753Z,12.15
2023-02-24T08:45:41.058Z,12.22
2023-02-24T08:48:46.698Z,12.28
2023-02-24T08:51:54.031Z,12.28
2023-02-24T08:55:01.872Z,11.93
2023-02-24T08:58:11.289Z,11.42
2023-02-24T09:01:24.506Z,11.09
2023-02-24T09:04:30.959Z,10.99
2023-02-24T09:07:40.690Z,11.39
2023-02-24T09:10:46.982Z,11.75
2023-02-24T09:13:58.300Z,11.99
2023-02-24T09:17:07.165Z,12.13
2023-02-24T09:20:37.746Z,12.25
2023-02-24T09:23:47.287Z,12.35
2023-02-24T09:26:58.789Z,12.44
2023-02-24T09:30:08.249Z,12.52
2023-02-24T09:33:21.379Z,12.61
2023-02-24T09:36:30.250Z,12.65
2023-02-24T09:39:51.697Z,12.24
2023-02-24T09:42:58.465Z,11.78
2023-02-24T09:46:14.999Z,11.49
2023-02-24T09:49:24.730Z,11.43
2023-02-24T09:52:42.164Z,11.89
2023-02-24T09:56:05.141Z,12.33
2023-02-24T09:59:26.494Z,12.65
2023-02-24T10:02:45.118Z,12.89
2023-02-24T10:06:00.040Z,13.12
2023-02-24T10:09:15.567Z,13.30
2023-02-24T10:12:40.466Z,13.35
2023-02-24T10:16:06.218Z,12.88
2023-02-24T10:19:25.687Z,12.46
2023-02-24T10:22:50.846Z,12.21
2023-02-24T10:26:06.732Z,12.22
2023-02-24T10:29:22.717Z,12.78
2023-02-24T10:32:38.438Z,13.25
2023-02-24T10:35:44.777Z,13.58
2023-02-24T10:38:56.202Z,13.38
2023-02-24T10:42:16.933Z,13.02
2023-02-24T10:45:27.490Z,12.76
2023-02-24T10:48:41.794Z,12.60
2023-02-24T10:52:33.550Z,12.46
2023-02-24T10:56:15.015Z,12.55
2023-02-24T10:59:41.373Z,13.09
2023-02-24T11:03:19.452Z,13.43
2023-02-24T11:06:55.750Z,13.51
2023-02-24T11:10:14.061Z,13.09
2023-02-24T11:13:38.802Z,12.83
2023-02-24T11:17:05.851Z,12.70
2023-02-24T11:20:24.944Z,12.65
2023-02-24T11:23:35.028Z,12.65
2023-02-24T11:26:43.613Z,12.61
2023-02-24T11:30:08.382Z,12.58
2023-02-24T11:33:30.262Z,12.72
2023-02-24T11:36:48.257Z,13.37
2023-02-24T11:40:01.924Z,13.90
2023-02-24T11:43:13.891Z,14.12
2023-02-24T11:46:27.375Z,13.80
2023-02-24T11:49:38.636Z,13.51
2023-02-24T11:52:48.362Z,13.30
2023-02-24T11:55:59.882Z,13.12
2023-02-24T11:59:13.699Z,12.98
2023-02-24T12:02:31.114Z,12.88
2023-02-24T12:05:41.026Z,12.79
2023-02-24T12:08:52.754Z,12.70
2023-02-24T12:12:04.517Z,12.60
2023-02-24T12:15:20.426Z,12.49
2023-02-24T12:18:27.717Z,12.41
2023-02-24T12:21:37.979Z,12.36
2023-02-24T12:24:50.020Z,12.47
2023-02-24T12:28:11.320Z,13.10
2023-02-24T12:31:32.292Z,13.77
2023-02-24T12:34:50.901Z,14.20
2023-02-24T12:38:03.971Z,14.10
2023-02-24T12:41:32.247Z,14.00
2023-02-24T12:44:48.066Z,13.88
2023-02-24T12:48:06.115Z,13.83
2023-02-24T12:51:22.778Z,13.81
2023-02-24T12:54:37.706Z,13.76
2023-02-24T12:57:53.209Z,13.73
2023-02-24T13:01:10.378Z,13.62
2023-02-24T13:04:31.273Z,13.52
2023-02-24T13:07:53.160Z,13.40
2023-02-24T13:11:06.134Z,13.25
2023-02-24T13:14:22.549Z,13.08
2023-02-24T13:17:29.746Z,12.86
2023-02-24T13:20:38.798Z,12.68
2023-02-24T13:23:58.248Z,12.51
2023-02-24T13:27:25.064Z,12.47
2023-02-24T13:30:39.570Z,12.92
2023-02-24T13:33:48.448Z,13.31
2023-02-24T13:36:54.672Z,13.57
2023-02-24T13:39:59.228Z,13.83
2023-02-24T13:43:08.215Z,14.08
2023-02-24T13:46:21.165Z,14.25
2023-02-24T13:49:37.077Z,13.97
2023-02-24T13:53:02.049Z,13.72
2023-02-24T13:56:27.702Z,13.56
2023-02-24T14:00:01.752Z,13.43
2023-02-24T14:03:17.677Z,13.29
2023-02-24T14:06:27.510Z,13.17
2023-02-24T14:09:41.689Z,13.06
2023-02-24T14:12:49.608Z,12.92
2023-02-24T14:15:56.404Z,12.77
2023-02-24T14:19:04.604Z,12.62
2023-02-24T14:22:21.747Z,12.49
2023-02-24T14:25:31.320Z,12.38
2023-02-24T14:28:39.786Z,12.29
2023-02-24T14:31:51.250Z,12.32
2023-02-24T14:34:58.146Z,12.80
2023-02-24T14:38:05.266Z,13.24
2023-02-24T14:41:22.466Z,13.58
2023-02-24T14:44:30.101Z,13.70
2023-02-24T14:47:37.945Z,13.29
2023-02-24T14:50:44.369Z,12.92
2023-02-24T14:53:53.464Z,12.67
2023-02-24T14:57:02.012Z,12.49
2023-02-24T15:00:17.531Z,12.33
2023-02-24T15:03:29.449Z,12.16
2023-02-24T15:06:40.997Z,12.02
2023-02-24T15:09:49.148Z,11.89
2023-02-24T15:13:00.756Z,11.79
2023-02-24T15:16:15.786Z,11.68
2023-02-24T15:19:29.160Z,11.59
2023-02-24T15:22:39.519Z,11.52
2023-02-24T15:25:47.937Z,11.45
2023-02-24T15:29:01.168Z,11.38
2023-02-24T15:32:13.134Z,11.33
2023-02-24T15:35:26.218Z,11.43
2023-02-24T15:38:37.910Z,11.99
2023-02-24T15:41:47.127Z,12.48
2023-02-24T15:44:56.754Z,12.81
2023-02-24T15:48:05.119Z,12.93
2023-02-24T15:51:19.569Z,12.56
2023-02-24T15:54:31.889Z,12.17
2023-02-24T15:57:38.341Z,11.90
2023-02-24T16:00:45.648Z,11.69
2023-02-24T16:03:51.921Z,11.49
2023-02-24T16:06:58.541Z,11.33
2023-02-24T16:10:05.618Z,11.21
2023-02-24T16:13:20.502Z,11.08
2023-02-24T16:16:27.717Z,11.10
2023-02-24T16:19:34.020Z,11.59
2023-02-24T16:22:40.235Z,12.03
2023-02-24T16:25:45.722Z,12.35
2023-02-24T16:28:55.564Z,12.56
2023-02-24T16:32:01.943Z,12.64
2023-02-24T16:35:11.113Z,12.27
2023-02-24T16:38:19.288Z,11.90
2023-02-24T16:41:26.034Z,11.62
2023-02-24T16:44:32.293Z,11.41
2023-02-24T16:47:38.757Z,11.24
2023-02-24T16:50:45.940Z,11.09
2023-02-24T16:53:52.180Z,10.96
2023-02-24T16:56:56.769Z,10.96
2023-02-24T17:00:03.308Z,11.40
2023-02-24T17:03:16.437Z,11.85
2023-02-24T17:06:23.868Z,12.17
2023-02-24T17:09:33.395Z,12.39
2023-02-24T17:12:39.667Z,12.43
2023-02-24T17:15:46.070Z,12.00
2023-02-24T17:18:52.275Z,11.58
2023-02-24T17:21:56.781Z,11.30
2023-02-24T17:25:03.414Z,11.11
2023-02-24T17:28:11.707Z,10.95
2023-02-24T17:31:18.473Z,10.78
2023-02-24T17:34:24.881Z,10.74
2023-02-24T17:37:29.363Z,11.18
2023-02-24T17:40:35.698Z,11.57
2023-02-24T17:43:41.818Z,11.87
2023-02-24T17:46:48.114Z,12.08
2023-02-24T17:49:54.360Z,12.22
2023-02-24T17:53:00.703Z,12.34
2023-02-24T17:56:06.285Z,12.45
2023-02-24T17:59:12.404Z,12.50
2023-02-24T18:02:20.142Z,12.59
2023-02-24T18:05:26.370Z,12.65
2023-02-24T18:08:30.969Z,12.69
2023-02-24T18:11:37.194Z,12.68
2023-02-24T18:14:43.466Z,12.71
2023-02-24T18:17:48.152Z,12.68
2023-02-24T18:20:58.736Z,12.62
2023-02-24T18:24:05.438Z,12.61
2023-02-24T18:27:11.584Z,12.61
2023-02-24T18:30:18.918Z,12.62
2023-02-24T18:33:25.515Z,12.63
2023-02-24T18:36:32.129Z,12.63
2023-02-24T18:39:38.303Z,12.63
2023-02-24T18:42:43.911Z,12.61
2023-02-24T18:45:50.187Z,12.58
2023-02-24T18:48:54.743Z,12.58
2023-02-24T18:52:01.499Z,12.56
2023-02-24T18:55:09.092Z,12.57
2023-02-24T18:58:16.064Z,12.57
2023-02-24T19:01:24.199Z,12.55
2023-02-24T19:04:30.329Z,12.56
2023-02-24T19:07:36.662Z,12.55
2023-02-24T19:10:43.794Z,12.56
2023-02-24T19:13:50.385Z,12.59
2023-02-24T19:16:56.669Z,12.64
2023-02-24T19:20:01.146Z,12.66
2023-02-24T19:23:07.404Z,12.62
2023-02-24T19:26:17.794Z,12.64
2023-02-24T19:29:25.972Z,12.61
2023-02-24T19:32:33.430Z,12.62
2023-02-24T19:35:42.998Z,12.61
2023-02-24T19:38:49.257Z,12.60
2023-02-24T19:41:54.912Z,12.58
2023-02-24T19:45:01.089Z,12.52
2023-02-24T19:48:07.449Z,12.49
2023-02-24T19:51:16.114Z,12.47
2023-02-24T19:54:23.294Z,12.47
2023-02-24T19:57:29.673Z,12.45
2023-02-24T20:00:35.928Z,12.42
2023-02-24T20:03:41.173Z,12.36
2023-02-24T20:06:47.572Z,12.26
2023-02-24T20:09:54.778Z,12.24
2023-02-24T20:13:01.018Z,12.25
2023-02-24T20:16:12.951Z,12.27
2023-02-24T20:19:19.252Z,12.26
2023-02-24T20:22:23.793Z,12.23
2023-02-24T20:25:30.192Z,12.21
2023-02-24T20:28:36.540Z,12.24
2023-02-24T20:31:41.377Z,12.27
2023-02-24T20:34:47.793Z,12.23
2023-02-24T20:37:54.127Z,12.26
2023-02-24T20:41:00.331Z,12.28
2023-02-24T20:44:07.284Z,12.25
2023-02-24T20:47:13.665Z,12.31
2023-02-24T20:50:19.988Z,12.35
2023-02-24T20:53:26.202Z,12.35
2023-02-24T20:56:36.548Z,12.34
2023-02-24T20:59:49.230Z,12.37
2023-02-24T21:03:00.045Z,12.38
2023-02-24T21:06:10.160Z,12.32
2023-02-24T21:09:16.811Z,11.77
2023-02-24T21:12:23.025Z,11.27
2023-02-24T21:15:27.607Z,11.01
2023-02-24T21:18:34.893Z,11.27
2023-02-24T21:21:41.210Z,11.60
2023-02-24T21:24:45.724Z,11.81
2023-02-24T21:27:51.898Z,11.94
2023-02-24T21:30:56.535Z,12.08
2023-02-24T21:34:03.864Z,12.16
2023-02-24T21:37:10.167Z,12.26
2023-02-24T21:40:17.682Z,12.31
2023-02-24T21:43:24.426Z,12.31
2023-02-24T21:46:30.814Z,12.30
2023-02-24T21:49:37.895Z,12.31
2023-02-24T21:52:45.516Z,12.26
2023-02-24T21:55:51.881Z,12.22
2023-02-24T21:59:01.131Z,12.16
2023-02-24T22:02:07.374Z,12.13
2023-02-24T22:05:12.037Z,12.11
2023-02-24T22:08:18.392Z,12.09
2023-02-24T22:11:25.327Z,12.08
2023-02-24T22:14:31.591Z,12.03
2023-02-24T22:17:37.023Z,12.02
2023-02-24T22:20:43.315Z,11.99
2023-02-24T22:23:48.369Z,11.97
2023-02-24T22:26:54.570Z,11.95
2023-02-24T22:29:59.068Z,11.91
2023-02-24T22:33:05.297Z,11.86
2023-02-24T22:36:10.856Z,11.89
2023-02-24T22:39:17.631Z,11.89
2023-02-24T22:42:23.895Z,11.94
2023-02-24T22:45:28.396Z,11.97
2023-02-24T22:48:36.062Z,11.98
2023-02-24T22:51:42.522Z,12.02
2023-02-24T22:54:48.889Z,12.03
2023-02-24T22:57:53.495Z,12.03
2023-02-24T23:00:59.865Z,11.99
2023-02-24T23:04:07.559Z,12.00
2023-02-24T23:07:13.782Z,11.98
2023-02-24T23:10:20.408Z,11.95
2023-02-24T23:13:26.633Z,11.91
2023-02-24T23:16:35.295Z,11.86
2023-02-24T23:19:41.576Z,11.79
2023-02-24T23:22:46.577Z,11.75
2023-02-24T23:25:54.701Z,11.69
2023-02-24T23:29:00.956Z,11.67
2023-02-24T23:32:07.361Z,11.65
2023-02-24T23:35:14.308Z,11.63
2023-02-24T23:38:20.692Z,11.58
2023-02-24T23:41:25.222Z,11.57
2023-02-24T23:44:31.486Z,11.55
2023-02-24T23:47:36.117Z,11.58
2023-02-24T23:50:43.426Z,11.59
2023-02-24T23:53:50.901Z,11.62
2023-02-24T23:56:57.328Z,11.63
